Time;durP1;ratioP1;P1;durP2;ratioP2;P2;SDS_P1;SDS_P2;PMS_P1;PMS_P2;Temp;Humidity;BMP_temperature;BMP_pressure;BME280_temperature;BME280_humidity;BME280_pressure;Samples;Min_cycle;Max_cycle;Signal;HPM_P1;HPM_P2
2024/01/25 00:02:03;;;;;;;;;;;17.80;51.20;;;;;;7400332;19;1901;-63
2024/01/25 00:04:28;;;;;;;;;;;17.80;51.30;;;;;;7396101;19;2106;-62
2024/01/25 00:06:53;;;;;;;;;;;17.80;51.30;;;;;;7395254;19;2315;-63
2024/01/25 00:09:19;;;;;;;;;;;17.70;51.30;;;;;;7396720;19;1942;-63
2024/01/25 00:11:44;;;;;;;;;;;17.70;51.40;;;;;;7397901;19;1720;-63
2024/01/25 00:14:10;;;;;;;;;;;17.70;51.50;;;;;;7396083;19;1423;-63
2024/01/25 00:16:35;;;;;;;;;;;17.70;51.50;;;;;;7399568;19;1978;-62
2024/01/25 00:19:00;;;;;;;;;;;17.70;51.60;;;;;;7398209;19;1431;-63
2024/01/25 00:21:26;;;;;;;;;;;17.60;51.50;;;;;;7397357;19;2431;-63
2024/01/25 00:23:51;;;;;;;;;;;17.70;51.60;;;;;;7394235;19;840;-63
2024/01/25 00:26:17;;;;;;;;;;;17.60;51.60;;;;;;7395534;19;1846;-63
2024/01/25 00:28:42;;;;;;;;;;;17.60;51.60;;;;;;7397447;19;1904;-63
2024/01/25 00:31:07;;;;;;;;;;;17.60;51.80;;;;;;7397481;19;982;-63
2024/01/25 00:33:33;;;;;;;;;;;17.50;51.70;;;;;;7393347;19;1100;-62
2024/01/25 00:35:59;;;;;;;;;;;17.50;51.80;;;;;;7395839;19;2073;-63
2024/01/25 00:38:24;;;;;;;;;;;17.50;51.90;;;;;;7393203;19;2195;-63
2024/01/25 00:40:50;;;;;;;;;;;17.50;51.70;;;;;;7395617;19;2058;-63
2024/01/25 00:43:15;;;;;;;;;;;17.50;51.80;;;;;;7397141;19;2143;-63
2024/01/25 00:45:41;;;;;;;;;;;17.50;51.80;;;;;;7393581;19;2145;-63
2024/01/25 00:48:07;;;;;;;;;;;17.50;51.80;;;;;;7395787;19;1917;-63
2024/01/25 00:50:33;;;;;;;;;;;17.40;51.90;;;;;;7392367;19;818;-63
2024/01/25 00:52:58;;;;;;;;;;;17.30;52.00;;;;;;7397942;19;1904;-63
2024/01/25 00:55:24;;;;;;;;;;;17.30;52.10;;;;;;7395425;19;1854;-63
2024/01/25 00:57:51;;;;;;;;;;;17.30;52.00;;;;;;7396022;19;1791;-63
2024/01/25 01:00:17;;;;;;;;;;;17.30;52.20;;;;;;7394569;19;2292;-62
2024/01/25 01:02:43;;;;;;;;;;;17.30;52.20;;;;;;7395832;19;2051;-63
2024/01/25 01:05:09;;;;;;;;;;;17.30;52.30;;;;;;7394054;19;2064;-62
2024/01/25 01:07:34;;;;;;;;;;;17.20;52.40;;;;;;7396304;19;2072;-63
2024/01/25 01:10:00;;;;;;;;;;;17.20;52.20;;;;;;7394369;19;1909;-64
2024/01/25 01:12:25;;;;;;;;;;;17.20;52.30;;;;;;7395568;19;1962;-63
2024/01/25 01:14:50;;;;;;;;;;;17.20;52.40;;;;;;7393836;19;2184;-63
2024/01/25 01:17:18;;;;;;;;;;;17.10;52.40;;;;;;7392045;19;2791;-63
2024/01/25 01:19:43;;;;;;;;;;;17.10;52.50;;;;;;7388397;19;1990;-63
2024/01/25 01:22:08;;;;;;;;;;;17.10;52.40;;;;;;7390255;19;1893;-63
2024/01/25 01:24:34;;;;;;;;;;;17.10;52.50;;;;;;7393906;19;1916;-63
2024/01/25 01:26:59;;;;;;;;;;;17.10;52.50;;;;;;7393118;19;1677;-63
2024/01/25 01:29:25;;;;;;;;;;;17.10;52.50;;;;;;7403760;19;2091;-62
2024/01/25 01:31:50;;;;;;;;;;;17.10;52.50;;;;;;7402554;19;1972;-63
2024/01/25 01:34:17;;;;;;;;;;;17.10;52.50;;;;;;7402145;19;2045;-63
2024/01/25 01:36:43;;;;;;;;;;;17.10;52.50;;;;;;7400500;19;2186;-62
2024/01/25 01:39:08;;;;;;;;;;;17.10;52.50;;;;;;7400475;19;1705;-63
2024/01/25 01:41:34;;;;;;;;;;;17.00;52.50;;;;;;7399765;19;2033;-62
2024/01/25 01:43:59;;;;;;;;;;;17.00;52.50;;;;;;7400233;19;871;-63
2024/01/25 01:46:32;;;;;;;;;;;17.00;52.50;;;;;;7396826;19;1919;-63
2024/01/25 01:48:58;;;;;;;;;;;17.00;52.50;;;;;;7400955;19;1914;-62
2024/01/25 01:51:23;;;;;;;;;;;17.00;52.50;;;;;;7400414;19;2120;-63
2024/01/25 01:53:49;;;;;;;;;;;17.00;52.50;;;;;;7399179;19;2056;-63
2024/01/25 01:56:14;;;;;;;;;;;16.90;52.50;;;;;;7397912;19;1200;-63
2024/01/25 01:58:40;;;;;;;;;;;16.90;52.50;;;;;;7402187;19;1727;-63
2024/01/25 02:01:05;;;;;;;;;;;16.90;52.50;;;;;;7398971;19;999;-63
2024/01/25 02:03:30;;;;;;;;;;;16.90;52.50;;;;;;7399528;19;1530;-63
2024/01/25 02:05:58;;;;;;;;;;;16.90;52.60;;;;;;7395667;19;2599;-63
2024/01/25 02:08:25;;;;;;;;;;;16.80;52.60;;;;;;7398756;19;2045;-63
2024/01/25 02:10:50;;;;;;;;;;;16.80;52.70;;;;;;7398740;19;1764;-63
2024/01/25 02:13:16;;;;;;;;;;;16.80;52.70;;;;;;7399523;19;1073;-63
2024/01/25 02:15:41;;;;;;;;;;;16.90;52.60;;;;;;7400360;19;1931;-63
2024/01/25 02:18:07;;;;;;;;;;;17.00;52.50;;;;;;7397707;19;859;-63
2024/01/25 02:20:32;;;;;;;;;;;17.10;52.40;;;;;;7396120;19;1940;-62
2024/01/25 02:22:58;;;;;;;;;;;17.30;52.10;;;;;;7399761;19;2176;-63
2024/01/25 02:25:23;;;;;;;;;;;17.50;51.50;;;;;;7398131;19;1972;-63
2024/01/25 02:27:49;;;;;;;;;;;17.80;50.90;;;;;;7400168;19;1839;-63
2024/01/25 02:30:14;;;;;;;;;;;18.20;50.30;;;;;;7400908;19;2094;-62
2024/01/25 02:32:40;;;;;;;;;;;18.50;49.60;;;;;;7400899;19;1807;-63
2024/01/25 02:35:06;;;;;;;;;;;18.80;49.00;;;;;;7395346;19;1978;-63
2024/01/25 02:37:31;;;;;;;;;;;18.90;48.60;;;;;;7396040;19;1257;-63
2024/01/25 02:39:56;;;;;;;;;;;19.00;48.40;;;;;;7397822;19;1443;-62
2024/01/25 02:42:22;;;;;;;;;;;19.00;48.30;;;;;;7399372;19;1632;-62
2024/01/25 02:44:49;;;;;;;;;;;19.00;48.20;;;;;;7395377;19;1834;-62
2024/01/25 02:47:15;;;;;;;;;;;19.00;48.30;;;;;;7397848;19;1994;-62
2024/01/25 02:49:40;;;;;;;;;;;18.90;48.30;;;;;;7397196;19;1408;-63
2024/01/25 02:52:06;;;;;;;;;;;18.90;48.40;;;;;;7399652;19;1947;-62
2024/01/25 02:54:34;;;;;;;;;;;18.90;48.40;;;;;;7397790;19;2055;-62
2024/01/25 02:56:59;;;;;;;;;;;18.90;48.40;;;;;;7399936;19;1620;-62
2024/01/25 02:59:25;;;;;;;;;;;18.90;48.40;;;;;;7398562;19;1888;-63
2024/01/25 03:01:51;;;;;;;;;;;18.90;48.40;;;;;;7397890;19;2061;-62
2024/01/25 03:04:16;;;;;;;;;;;19.00;48.40;;;;;;7396836;19;2311;-63
2024/01/25 03:06:42;;;;;;;;;;;18.90;48.20;;;;;;7400173;19;1546;-62
2024/01/25 03:09:07;;;;;;;;;;;18.90;48.40;;;;;;7399339;19;1509;-61
2024/01/25 03:11:33;;;;;;;;;;;18.90;48.30;;;;;;7400452;19;1670;-61
2024/01/25 03:13:59;;;;;;;;;;;19.00;48.10;;;;;;7398488;19;2148;-61
2024/01/25 03:16:24;;;;;;;;;;;19.00;48.20;;;;;;7399244;19;1922;-63
2024/01/25 03:18:50;;;;;;;;;;;18.90;48.50;;;;;;7399636;19;2353;-61
2024/01/25 03:21:15;;;;;;;;;;;18.90;48.30;;;;;;7397490;19;1585;-63
2024/01/25 03:23:41;;;;;;;;;;;19.00;48.20;;;;;;7397398;19;1619;-62
2024/01/25 03:26:06;;;;;;;;;;;19.00;48.10;;;;;;7395316;19;1825;-61
2024/01/25 03:28:33;;;;;;;;;;;19.10;48.10;;;;;;7400095;19;1570;-63
2024/01/25 03:30:59;;;;;;;;;;;19.00;48.00;;;;;;7395948;19;2029;-61
2024/01/25 03:33:26;;;;;;;;;;;18.90;48.30;;;;;;7398312;19;1997;-61
2024/01/25 03:35:51;;;;;;;;;;;18.90;48.90;;;;;;7395891;19;2096;-60
2024/01/25 03:38:17;;;;;;;;;;;18.90;48.40;;;;;;7399925;19;1926;-60
2024/01/25 03:40:42;;;;;;;;;;;18.80;48.40;;;;;;7395238;19;1729;-61
2024/01/25 03:43:08;;;;;;;;;;;18.80;48.50;;;;;;7398243;19;1348;-62
2024/01/25 03:45:33;;;;;;;;;;;18.80;48.60;;;;;;7397469;19;1856;-62
2024/01/25 03:47:59;;;;;;;;;;;18.80;48.60;;;;;;7394674;19;882;-62
2024/01/25 03:50:24;;;;;;;;;;;18.80;48.50;;;;;;7393929;19;876;-61
2024/01/25 03:52:49;;;;;;;;;;;18.80;48.50;;;;;;7395461;19;2306;-60
2024/01/25 03:55:15;;;;;;;;;;;18.80;48.40;;;;;;7393509;19;1488;-60
2024/01/25 03:57:41;;;;;;;;;;;18.90;48.30;;;;;;7398430;19;1509;-60
2024/01/25 04:00:07;;;;;;;;;;;19.00;48.20;;;;;;7393747;19;1527;-60
2024/01/25 04:02:33;;;;;;;;;;;19.00;48.10;;;;;;7398245;19;962;-61
2024/01/25 04:04:58;;;;;;;;;;;19.00;48.10;;;;;;7395584;19;1849;-61
2024/01/25 04:07:23;;;;;;;;;;;19.00;48.20;;;;;;7395680;19;1539;-62
2024/01/25 04:09:50;;;;;;;;;;;18.90;48.30;;;;;;7398309;19;1591;-62
2024/01/25 04:12:16;;;;;;;;;;;18.90;48.30;;;;;;7394367;19;1638;-61
2024/01/25 04:14:41;;;;;;;;;;;18.90;48.30;;;;;;7395701;19;1741;-62
2024/01/25 04:17:07;;;;;;;;;;;18.90;48.20;;;;;;7397034;19;1649;-63
2024/01/25 04:19:32;;;;;;;;;;;18.90;48.30;;;;;;7398504;19;1595;-61
2024/01/25 04:21:58;;;;;;;;;;;19.00;48.20;;;;;;7392330;19;1002;-63
2024/01/25 04:24:23;;;;;;;;;;;18.90;48.10;;;;;;7396544;19;1865;-63
2024/01/25 04:26:48;;;;;;;;;;;18.90;48.30;;;;;;7392862;19;763;-63
2024/01/25 04:29:14;;;;;;;;;;;19.00;48.20;;;;;;7395352;19;1671;-61
2024/01/25 04:31:46;;;;;;;;;;;18.90;48.20;;;;;;7394647;19;1340;-63
2024/01/25 04:34:14;;;;;;;;;;;19.00;48.20;;;;;;7397243;19;1311;-63
2024/01/25 04:36:40;;;;;;;;;;;19.00;48.10;;;;;;7391317;19;1064;-61
2024/01/25 04:39:06;;;;;;;;;;;19.00;48.10;;;;;;7392510;19;1919;-61
2024/01/25 04:41:31;;;;;;;;;;;18.90;48.20;;;;;;7393361;19;2161;-61
2024/01/25 04:43:56;;;;;;;;;;;18.90;48.30;;;;;;7397309;19;1979;-63
2024/01/25 04:46:22;;;;;;;;;;;18.90;48.20;;;;;;7390660;19;1845;-62
2024/01/25 04:48:47;;;;;;;;;;;18.90;48.20;;;;;;7394623;19;1900;-61
2024/01/25 04:51:16;;;;;;;;;;;18.90;48.20;;;;;;7392773;19;840;-61
2024/01/25 04:53:42;;;;;;;;;;;18.90;48.20;;;;;;7394742;19;2070;-62
2024/01/25 04:56:07;;;;;;;;;;;19.00;48.10;;;;;;7394147;19;1590;-63
2024/01/25 04:58:33;;;;;;;;;;;19.00;48.20;;;;;;7396139;19;1818;-63
2024/01/25 05:00:59;;;;;;;;;;;19.00;48.20;;;;;;7393517;19;1509;-63
2024/01/25 05:03:25;;;;;;;;;;;19.00;48.00;;;;;;7394903;19;2587;-63
2024/01/25 05:05:50;;;;;;;;;;;19.00;48.20;;;;;;7391153;19;1895;-61
2024/01/25 05:08:16;;;;;;;;;;;19.10;48.00;;;;;;7393220;19;978;-63
2024/01/25 05:10:41;;;;;;;;;;;19.10;48.00;;;;;;7391066;19;2534;-63
2024/01/25 05:13:07;;;;;;;;;;;19.10;47.80;;;;;;7395504;19;1053;-62
2024/01/25 05:15:32;;;;;;;;;;;19.20;47.80;;;;;;7394830;19;2698;-62
2024/01/25 05:17:57;;;;;;;;;;;19.20;47.80;;;;;;7392649;19;1034;-62
2024/01/25 05:20:23;;;;;;;;;;;19.20;47.70;;;;;;7392535;19;2075;-62
2024/01/25 05:22:48;;;;;;;;;;;19.30;47.70;;;;;;7391070;19;1144;-63
2024/01/25 05:25:14;;;;;;;;;;;19.20;47.60;;;;;;7393156;19;1853;-62
2024/01/25 05:27:39;;;;;;;;;;;19.20;47.80;;;;;;7396375;19;1520;-62
2024/01/25 05:30:05;;;;;;;;;;;19.20;47.90;;;;;;7392116;19;1014;-62
2024/01/25 05:32:31;;;;;;;;;;;19.30;47.70;;;;;;7393124;19;3195;-62
2024/01/25 05:34:56;;;;;;;;;;;19.20;47.60;;;;;;7395227;19;1511;-62
2024/01/25 05:37:21;;;;;;;;;;;19.20;47.70;;;;;;7392105;19;1106;-62
2024/01/25 05:39:47;;;;;;;;;;;19.10;47.80;;;;;;7394732;19;1671;-62
2024/01/25 05:42:12;;;;;;;;;;;19.10;47.90;;;;;;7393814;19;1551;-62
2024/01/25 05:44:38;;;;;;;;;;;19.10;47.80;;;;;;7395568;19;1843;-62
2024/01/25 05:47:03;;;;;;;;;;;19.20;47.80;;;;;;7395407;19;1523;-62
2024/01/25 05:49:29;;;;;;;;;;;19.20;47.70;;;;;;7393720;19;1747;-62
2024/01/25 05:51:54;;;;;;;;;;;19.20;47.70;;;;;;7390855;19;787;-62
2024/01/25 05:54:20;;;;;;;;;;;19.20;47.80;;;;;;7393420;19;1669;-62
2024/01/25 05:56:45;;;;;;;;;;;19.10;47.90;;;;;;7392480;19;1401;-63
2024/01/25 05:59:11;;;;;;;;;;;19.10;47.80;;;;;;7392000;19;935;-62
2024/01/25 06:01:36;;;;;;;;;;;19.10;48.00;;;;;;7393265;19;1595;-62
2024/01/25 06:04:02;;;;;;;;;;;19.10;47.90;;;;;;7390669;19;1591;-62
2024/01/25 06:06:27;;;;;;;;;;;19.20;47.90;;;;;;7389381;19;1849;-62
2024/01/25 06:08:53;;;;;;;;;;;19.20;47.90;;;;;;7394543;19;1461;-62
2024/01/25 06:11:18;;;;;;;;;;;19.20;48.00;;;;;;7392568;19;1645;-62
2024/01/25 06:13:44;;;;;;;;;;;19.10;48.00;;;;;;7389779;19;2330;-63
2024/01/25 06:16:10;;;;;;;;;;;19.10;48.10;;;;;;7395318;19;2332;-63
2024/01/25 06:18:35;;;;;;;;;;;19.10;48.20;;;;;;7398034;19;1676;-63
2024/01/25 06:21:00;;;;;;;;;;;19.50;47.80;;;;;;7400102;19;2254;-63
2024/01/25 06:23:26;;;;;;;;;;;20.10;46.60;;;;;;7400681;19;1647;-64
2024/01/25 06:25:51;;;;;;;;;;;20.80;45.60;;;;;;7397646;19;1860;-63
2024/01/25 06:28:17;;;;;;;;;;;21.00;44.90;;;;;;7401518;19;1094;-63
2024/01/25 06:30:43;;;;;;;;;;;20.90;45.00;;;;;;7401167;19;1589;-63
2024/01/25 06:33:08;;;;;;;;;;;20.80;45.10;;;;;;7400181;19;2761;-63
2024/01/25 06:35:34;;;;;;;;;;;20.80;45.20;;;;;;7397287;19;1554;-64
2024/01/25 06:37:59;;;;;;;;;;;20.70;45.30;;;;;;7398187;19;1709;-63
2024/01/25 06:40:24;;;;;;;;;;;20.60;45.40;;;;;;7400647;19;1617;-63
2024/01/25 06:42:50;;;;;;;;;;;20.50;45.70;;;;;;7401911;19;1499;-63
2024/01/25 06:45:16;;;;;;;;;;;20.30;45.90;;;;;;7399750;19;1841;-63
2024/01/25 06:47:41;;;;;;;;;;;20.30;46.20;;;;;;7399722;19;1600;-63
2024/01/25 06:50:07;;;;;;;;;;;20.20;46.30;;;;;;7399693;19;1487;-63
2024/01/25 06:52:33;;;;;;;;;;;20.10;46.40;;;;;;7399524;19;1880;-63
2024/01/25 06:54:58;;;;;;;;;;;20.00;46.70;;;;;;7398653;19;1700;-63
2024/01/25 06:57:23;;;;;;;;;;;19.90;46.80;;;;;;7396731;19;1606;-62
2024/01/25 06:59:49;;;;;;;;;;;19.90;46.80;;;;;;7397559;19;1680;-63
2024/01/25 07:02:14;;;;;;;;;;;19.90;46.80;;;;;;7395331;19;2661;-62
2024/01/25 07:04:40;;;;;;;;;;;19.80;47.00;;;;;;7397095;19;2078;-63
2024/01/25 07:07:06;;;;;;;;;;;19.90;46.90;;;;;;7397955;19;1439;-63
2024/01/25 07:09:31;;;;;;;;;;;19.90;46.90;;;;;;7400192;19;2309;-63
2024/01/25 07:11:57;;;;;;;;;;;19.90;46.80;;;;;;7396572;19;1669;-62
2024/01/25 07:14:22;;;;;;;;;;;19.90;46.90;;;;;;7398461;19;1415;-63
2024/01/25 07:16:47;;;;;;;;;;;19.90;46.90;;;;;;7400610;19;1539;-63
2024/01/25 07:19:13;;;;;;;;;;;19.80;47.00;;;;;;7397741;19;1801;-63
2024/01/25 07:21:40;;;;;;;;;;;19.80;47.00;;;;;;7397844;19;3019;-63
2024/01/25 07:24:05;;;;;;;;;;;19.90;46.90;;;;;;7397425;19;1975;-63
2024/01/25 07:26:31;;;;;;;;;;;19.80;47.00;;;;;;7392066;19;2002;-62
2024/01/25 07:28:59;;;;;;;;;;;19.80;47.20;;;;;;7397824;19;1678;-63
2024/01/25 07:31:25;;;;;;;;;;;19.70;47.20;;;;;;7397123;19;1849;-63
2024/01/25 07:33:51;;;;;;;;;;;19.80;47.20;;;;;;7396420;19;1488;-63
2024/01/25 07:36:17;;;;;;;;;;;20.00;47.00;;;;;;7395918;19;1395;-63
2024/01/25 07:38:43;;;;;;;;;;;20.10;46.70;;;;;;7396983;19;1627;-63
2024/01/25 07:41:08;;;;;;;;;;;20.20;46.40;;;;;;7397287;19;1583;-63
2024/01/25 07:43:33;;;;;;;;;;;20.20;46.40;;;;;;7395626;19;1650;-63
2024/01/25 07:45:59;;;;;;;;;;;20.20;46.40;;;;;;7397200;19;1853;-63
2024/01/25 07:48:24;;;;;;;;;;;20.20;46.40;;;;;;7396201;19;1641;-63
2024/01/25 07:50:50;;;;;;;;;;;20.10;46.50;;;;;;7398467;19;1311;-63
2024/01/25 07:53:18;;;;;;;;;;;20.00;46.70;;;;;;7394991;19;1664;-63
2024/01/25 07:55:43;;;;;;;;;;;19.90;47.00;;;;;;7395785;19;1508;-63
2024/01/25 07:58:09;;;;;;;;;;;19.80;47.10;;;;;;7396843;19;1931;-62
2024/01/25 08:00:34;;;;;;;;;;;19.90;47.10;;;;;;7398064;19;1722;-64
2024/01/25 08:03:00;;;;;;;;;;;19.90;47.00;;;;;;7395524;19;1718;-62
2024/01/25 08:05:25;;;;;;;;;;;19.80;47.10;;;;;;7394629;19;3488;-63
2024/01/25 08:07:51;;;;;;;;;;;19.80;47.10;;;;;;7396713;19;1557;-63
2024/01/25 08:10:16;;;;;;;;;;;19.80;47.00;;;;;;7396546;19;1601;-63
2024/01/25 08:12:43;;;;;;;;;;;19.80;47.10;;;;;;7395395;19;2160;-63
2024/01/25 08:15:09;;;;;;;;;;;19.70;47.30;;;;;;7394561;19;1912;-63
2024/01/25 08:17:36;;;;;;;;;;;19.70;47.30;;;;;;7396196;19;1662;-63
2024/01/25 08:20:02;;;;;;;;;;;19.70;47.30;;;;;;7397198;19;1663;-63
2024/01/25 08:22:28;;;;;;;;;;;19.80;47.30;;;;;;7392559;19;1545;-63
2024/01/25 08:24:53;;;;;;;;;;;19.70;47.30;;;;;;7392485;19;1946;-62
2024/01/25 08:27:19;;;;;;;;;;;19.80;47.40;;;;;;7392019;19;1724;-63
2024/01/25 08:29:44;;;;;;;;;;;19.80;47.10;;;;;;7392381;19;1643;-63
2024/01/25 08:32:10;;;;;;;;;;;19.80;47.20;;;;;;7397759;19;1536;-64
2024/01/25 08:34:35;;;;;;;;;;;19.90;47.10;;;;;;7394795;19;1597;-63
2024/01/25 08:37:01;;;;;;;;;;;20.10;46.80;;;;;;7391236;19;800;-64
2024/01/25 08:39:26;;;;;;;;;;;20.20;46.50;;;;;;7395070;19;1585;-64
2024/01/25 08:41:52;;;;;;;;;;;20.20;46.40;;;;;;7397904;19;1848;-64
2024/01/25 08:44:17;;;;;;;;;;;20.30;46.40;;;;;;7394137;19;803;-63
2024/01/25 08:46:43;;;;;;;;;;;20.20;46.50;;;;;;7390704;19;1846;-63
2024/01/25 08:49:09;;;;;;;;;;;20.10;46.60;;;;;;7392209;19;2013;-64
2024/01/25 08:51:35;;;;;;;;;;;20.00;46.90;;;;;;7395623;19;1690;-63
2024/01/25 08:54:01;;;;;;;;;;;19.90;47.00;;;;;;7395795;19;1633;-64
2024/01/25 08:56:26;;;;;;;;;;;20.00;46.90;;;;;;7393578;19;916;-64
2024/01/25 08:58:52;;;;;;;;;;;20.00;46.90;;;;;;7394755;19;2216;-64
2024/01/25 09:01:17;;;;;;;;;;;20.00;46.90;;;;;;7392927;19;2189;-62
2024/01/25 09:03:43;;;;;;;;;;;19.90;46.90;;;;;;7397959;19;1911;-64
2024/01/25 09:06:09;;;;;;;;;;;19.80;47.00;;;;;;7393402;19;3832;-64
2024/01/25 09:08:34;;;;;;;;;;;19.80;47.20;;;;;;7393695;19;1550;-64
2024/01/25 09:11:00;;;;;;;;;;;19.80;47.20;;;;;;7395988;19;1842;-62
2024/01/25 09:13:25;;;;;;;;;;;19.80;47.20;;;;;;7393260;19;892;-63
2024/01/25 09:15:51;;;;;;;;;;;19.80;47.20;;;;;;7395463;19;1689;-63
2024/01/25 09:18:16;;;;;;;;;;;19.90;47.70;;;;;;7394307;19;1686;-63
2024/01/25 09:20:47;;;;;;;;;;;19.90;47.00;;;;;;7390817;19;2198;-64
2024/01/25 09:23:13;;;;;;;;;;;20.00;47.00;;;;;;7395488;19;1687;-64
2024/01/25 09:25:39;;;;;;;;;;;19.90;46.90;;;;;;7392192;19;1837;-64
2024/01/25 09:28:04;;;;;;;;;;;19.80;47.10;;;;;;7395672;19;1438;-63
2024/01/25 09:30:30;;;;;;;;;;;19.90;47.10;;;;;;7392793;19;1553;-63
2024/01/25 09:32:55;;;;;;;;;;;20.10;47.00;;;;;;7392856;19;816;-64
2024/01/25 09:35:21;;;;;;;;;;;20.20;46.70;;;;;;7394419;19;2220;-63
2024/01/25 09:37:46;;;;;;;;;;;20.30;46.50;;;;;;7392479;19;1688;-63
2024/01/25 09:40:12;;;;;;;;;;;20.30;46.40;;;;;;7392861;19;1872;-63
2024/01/25 09:42:37;;;;;;;;;;;20.30;46.50;;;;;;7392151;19;1941;-64
2024/01/25 09:45:04;;;;;;;;;;;20.20;46.50;;;;;;7392353;19;1858;-63
2024/01/25 09:47:29;;;;;;;;;;;20.10;46.70;;;;;;7393596;19;2016;-63
2024/01/25 09:49:55;;;;;;;;;;;20.10;46.90;;;;;;7395912;19;2050;-63
2024/01/25 09:52:24;;;;;;;;;;;20.10;46.90;;;;;;7399590;19;1729;-62
2024/01/25 09:54:49;;;;;;;;;;;20.20;46.80;;;;;;7400404;19;1693;-63
2024/01/25 09:57:18;;;;;;;;;;;20.10;46.80;;;;;;7399865;19;1674;-63
2024/01/25 09:59:44;;;;;;;;;;;20.10;46.80;;;;;;7398760;19;1608;-64
2024/01/25 10:02:09;;;;;;;;;;;20.10;46.90;;;;;;7401301;19;1972;-63
2024/01/25 10:04:35;;;;;;;;;;;20.10;46.90;;;;;;7400818;19;1844;-62
2024/01/25 10:07:00;;;;;;;;;;;20.10;46.90;;;;;;7397923;19;2732;-63
2024/01/25 10:09:27;;;;;;;;;;;20.10;47.00;;;;;;7400947;19;2067;-63
2024/01/25 10:11:52;;;;;;;;;;;20.00;47.00;;;;;;7398812;19;1667;-64
2024/01/25 10:14:17;;;;;;;;;;;20.00;47.20;;;;;;7402519;19;1676;-63
2024/01/25 10:16:44;;;;;;;;;;;20.00;47.20;;;;;;7397955;19;1203;-64
2024/01/25 10:19:10;;;;;;;;;;;20.00;47.20;;;;;;7402022;19;1686;-63
2024/01/25 10:21:36;;;;;;;;;;;20.10;47.10;;;;;;7396843;19;1600;-63
2024/01/25 10:24:02;;;;;;;;;;;20.00;47.10;;;;;;7401165;19;1797;-63
2024/01/25 10:26:28;;;;;;;;;;;20.00;47.20;;;;;;7395241;19;1842;-63
2024/01/25 10:28:53;;;;;;;;;;;20.00;47.20;;;;;;7397465;19;1667;-63
2024/01/25 10:31:19;;;;;;;;;;;20.10;47.00;;;;;;7397891;19;1275;-63
2024/01/25 10:33:44;;;;;;;;;;;20.30;46.90;;;;;;7400295;19;1828;-64
2024/01/25 10:36:10;;;;;;;;;;;20.40;46.70;;;;;;7396989;19;1652;-65
2024/01/25 10:38:36;;;;;;;;;;;20.40;46.50;;;;;;7399757;19;1884;-63
2024/01/25 10:41:02;;;;;;;;;;;20.40;46.50;;;;;;7396041;19;795;-63
2024/01/25 10:43:30;;;;;;;;;;;20.30;46.60;;;;;;7396509;19;925;-63
2024/01/25 10:45:57;;;;;;;;;;;20.20;46.90;;;;;;7398034;19;1845;-63
2024/01/25 10:48:24;;;;;;;;;;;20.10;47.00;;;;;;7396237;19;821;-63
2024/01/25 10:50:49;;;;;;;;;;;20.10;47.10;;;;;;7397344;19;1895;-63
2024/01/25 10:53:15;;;;;;;;;;;20.10;47.00;;;;;;7400499;19;1744;-63
2024/01/25 10:55:41;;;;;;;;;;;20.10;46.90;;;;;;7395390;19;1792;-62
2024/01/25 10:58:06;;;;;;;;;;;20.10;47.00;;;;;;7394379;19;1413;-63
2024/01/25 11:00:33;;;;;;;;;;;20.10;47.00;;;;;;7398602;19;1738;-63
2024/01/25 11:02:58;;;;;;;;;;;20.20;46.90;;;;;;7400443;19;2128;-64
2024/01/25 11:05:23;;;;;;;;;;;20.10;46.90;;;;;;7394295;19;1870;-63
2024/01/25 11:07:49;;;;;;;;;;;20.00;47.10;;;;;;7396321;19;2861;-63
2024/01/25 11:10:18;;;;;;;;;;;20.10;47.00;;;;;;7395736;19;1630;-63
2024/01/25 11:12:57;;;;;;;;;;;20.10;47.10;;;;;;7398815;19;1647;-63
2024/01/25 11:15:23;;;;;;;;;;;20.00;47.10;;;;;;7398279;19;1927;-64
2024/01/25 11:17:55;;;;;;;;;;;20.10;47.20;;;;;;7399111;19;1658;-64
2024/01/25 11:20:21;;;;;;;;;;;20.10;47.20;;;;;;7395592;19;1484;-63
2024/01/25 11:22:47;;;;;;;;;;;20.10;47.10;;;;;;7397581;19;2929;-63
2024/01/25 11:25:21;;;;;;;;;;;20.10;47.20;;;;;;7397925;19;1859;-63
2024/01/25 11:27:50;;;;;;;;;;;20.10;47.20;;;;;;7395484;19;818;-63
2024/01/25 11:30:17;;;;;;;;;;;20.20;47.10;;;;;;7394698;19;875;-63
2024/01/25 11:32:42;;;;;;;;;;;20.30;46.90;;;;;;7398346;19;1790;-62
2024/01/25 11:35:10;;;;;;;;;;;20.40;46.60;;;;;;7393547;19;1775;-63
2024/01/25 11:37:36;;;;;;;;;;;20.50;46.60;;;;;;7395453;19;1507;-63
2024/01/25 11:40:01;;;;;;;;;;;20.50;46.50;;;;;;7395841;19;2587;-63
2024/01/25 11:42:30;;;;;;;;;;;20.40;46.50;;;;;;7398205;19;1790;-64
2024/01/25 11:44:56;;;;;;;;;;;20.30;46.60;;;;;;7392950;19;2799;-63
2024/01/25 11:47:21;;;;;;;;;;;20.30;46.70;;;;;;7396993;19;1554;-63
2024/01/25 11:49:47;;;;;;;;;;;20.30;46.50;;;;;;7394524;19;2303;-64
2024/01/25 11:52:13;;;;;;;;;;;20.40;46.50;;;;;;7395325;19;2806;-63
2024/01/25 11:54:38;;;;;;;;;;;20.30;46.50;;;;;;7394467;19;2899;-64
2024/01/25 11:57:04;;;;;;;;;;;20.20;46.70;;;;;;7394009;19;2696;-63
2024/01/25 11:59:30;;;;;;;;;;;20.20;46.80;;;;;;7394366;19;1636;-63
2024/01/25 12:01:55;;;;;;;;;;;20.30;46.70;;;;;;7396122;19;2532;-63
2024/01/25 12:04:21;;;;;;;;;;;20.20;46.70;;;;;;7398336;19;2352;-63
2024/01/25 12:06:47;;;;;;;;;;;20.20;46.90;;;;;;7395786;19;1865;-62
2024/01/25 12:09:12;;;;;;;;;;;20.20;46.90;;;;;;7396296;19;2653;-63
2024/01/25 12:11:38;;;;;;;;;;;20.10;47.00;;;;;;7387603;19;2775;-64
2024/01/25 12:14:04;;;;;;;;;;;20.10;46.90;;;;;;7391078;19;2349;-64
2024/01/25 12:16:29;;;;;;;;;;;20.10;46.90;;;;;;7393350;19;1774;-63
2024/01/25 12:18:55;;;;;;;;;;;20.10;46.90;;;;;;7396215;19;1987;-64
2024/01/25 12:21:20;;;;;;;;;;;20.20;46.70;;;;;;7395466;19;1753;-63
2024/01/25 12:23:46;;;;;;;;;;;20.20;46.80;;;;;;7395669;19;1687;-63
2024/01/25 12:26:11;;;;;;;;;;;20.20;47.00;;;;;;7397088;19;1856;-62
2024/01/25 12:28:37;;;;;;;;;;;20.20;47.10;;;;;;7398706;19;1393;-62
2024/01/25 12:31:06;;;;;;;;;;;20.30;46.90;;;;;;7393947;19;1616;-62
2024/01/25 12:33:31;;;;;;;;;;;20.40;46.80;;;;;;7394732;19;1532;-62
2024/01/25 12:35:58;;;;;;;;;;;20.50;46.60;;;;;;7394767;19;1540;-62
2024/01/25 12:38:24;;;;;;;;;;;20.50;46.40;;;;;;7395119;19;1660;-63
2024/01/25 12:40:49;;;;;;;;;;;20.50;46.30;;;;;;7394198;19;1443;-62
2024/01/25 12:43:15;;;;;;;;;;;20.50;46.60;;;;;;7394259;19;1559;-63
2024/01/25 12:45:40;;;;;;;;;;;20.40;46.70;;;;;;7395124;19;1857;-63
2024/01/25 12:48:07;;;;;;;;;;;20.30;46.70;;;;;;7397550;19;1579;-62
2024/01/25 12:50:33;;;;;;;;;;;20.40;46.60;;;;;;7395554;19;2086;-63
2024/01/25 12:52:59;;;;;;;;;;;20.30;46.50;;;;;;7395018;19;1412;-62
2024/01/25 12:55:24;;;;;;;;;;;20.30;46.50;;;;;;7394196;19;1526;-63
2024/01/25 12:57:50;;;;;;;;;;;20.30;46.50;;;;;;7394511;19;1426;-63
2024/01/25 13:00:15;;;;;;;;;;;20.40;46.60;;;;;;7392120;19;2804;-63
2024/01/25 13:02:41;;;;;;;;;;;20.40;46.80;;;;;;7396066;19;1579;-63
2024/01/25 13:05:06;;;;;;;;;;;20.40;46.30;;;;;;7392722;19;1849;-63
2024/01/25 13:07:32;;;;;;;;;;;20.40;46.30;;;;;;7394639;19;2483;-63
2024/01/25 13:09:57;;;;;;;;;;;20.30;46.60;;;;;;7396920;19;1893;-63
2024/01/25 13:12:22;;;;;;;;;;;20.30;46.50;;;;;;7394622;19;1686;-63
2024/01/25 13:14:48;;;;;;;;;;;20.30;46.50;;;;;;7394314;19;1588;-63
2024/01/25 13:17:13;;;;;;;;;;;20.40;46.50;;;;;;7395092;19;1656;-62
2024/01/25 13:19:39;;;;;;;;;;;20.30;46.50;;;;;;7394502;19;1718;-63
2024/01/25 13:22:04;;;;;;;;;;;20.20;46.50;;;;;;7392143;19;1661;-62
2024/01/25 13:24:29;;;;;;;;;;;20.20;46.70;;;;;;7390582;19;2399;-63
2024/01/25 13:26:55;;;;;;;;;;;20.20;46.70;;;;;;7392289;19;1865;-63
2024/01/25 13:29:20;;;;;;;;;;;20.30;46.80;;;;;;7393835;19;1913;-63
2024/01/25 13:31:47;;;;;;;;;;;20.40;46.50;;;;;;7392563;19;1571;-63
2024/01/25 13:34:13;;;;;;;;;;;20.50;46.40;;;;;;7395955;19;1624;-63
2024/01/25 13:36:38;;;;;;;;;;;20.50;47.00;;;;;;7392343;19;1811;-64
2024/01/25 13:39:03;;;;;;;;;;;20.50;46.20;;;;;;7392471;19;1945;-62
2024/01/25 13:41:29;;;;;;;;;;;20.50;46.30;;;;;;7393351;19;1680;-63
2024/01/25 13:43:54;;;;;;;;;;;20.40;46.50;;;;;;7392336;19;1657;-62
2024/01/25 13:46:20;;;;;;;;;;;20.30;46.50;;;;;;7390090;19;2645;-62
2024/01/25 13:48:45;;;;;;;;;;;20.30;46.50;;;;;;7392889;19;1587;-62
2024/01/25 13:51:11;;;;;;;;;;;20.40;46.50;;;;;;7394029;19;1818;-63
2024/01/25 13:53:37;;;;;;;;;;;20.30;46.40;;;;;;7392273;19;1675;-63
2024/01/25 13:56:02;;;;;;;;;;;20.40;46.50;;;;;;7394969;19;1507;-63
2024/01/25 13:58:28;;;;;;;;;;;20.40;46.30;;;;;;7393445;19;1654;-63
2024/01/25 14:00:54;;;;;;;;;;;20.50;46.40;;;;;;7391599;19;1470;-63
2024/01/25 14:03:19;;;;;;;;;;;20.50;46.30;;;;;;7394330;19;1620;-63
2024/01/25 14:05:45;;;;;;;;;;;20.50;46.10;;;;;;7390179;19;1869;-63
2024/01/25 14:08:10;;;;;;;;;;;20.50;46.20;;;;;;7394635;19;2202;-62
2024/01/25 14:10:36;;;;;;;;;;;20.50;46.30;;;;;;7392382;19;2560;-62
2024/01/25 14:13:01;;;;;;;;;;;20.40;46.20;;;;;;7391733;19;1780;-63
2024/01/25 14:15:27;;;;;;;;;;;20.50;46.20;;;;;;7390935;19;1799;-64
2024/01/25 14:17:53;;;;;;;;;;;20.50;46.10;;;;;;7392650;19;1394;-64
2024/01/25 14:20:18;;;;;;;;;;;20.50;46.10;;;;;;7393331;19;1290;-62
2024/01/25 14:22:44;;;;;;;;;;;20.50;46.10;;;;;;7393867;19;1647;-63